Time;durP1;ratioP1;P1;durP2;ratioP2;P2;SDS_P1;SDS_P2;PMS_P1;PMS_P2;Temp;Humidity;BMP_temperature;BMP_pressure;BME280_temperature;BME280_humidity;BME280_pressure;Samples;Min_cycle;Max_cycle;Signal;HPM_P1;HPM_P2
2022/11/21 00:01:59;;;;;;;;;;;;;;;;;;6230475;22;19923;-91
2022/11/21 00:04:24;;;;;;;;;;;;;;;;;;6228673;22;19923;-90
2022/11/21 00:06:51;;;;;;;;;;;;;;;;;;6232170;22;19945;-91
2022/11/21 00:09:17;;;;;;;;;;;;;;;;;;6230044;22;20294;-90
2022/11/21 00:11:43;;;;;;;;;;;;;;;;;;6229655;22;19919;-91
2022/11/21 00:14:09;;;;;;;;;;;;;;;;;;6233676;22;20291;-90
2022/11/21 00:16:35;;;;;;;;;;;;;;;;;;6228959;22;19927;-90
2022/11/21 00:19:01;;;;;;;;;;;;;;;;;;6230902;22;19919;-90
2022/11/21 00:21:27;;;;;;;;;;;;;;;;;;6229570;22;19972;-90
2022/11/21 00:23:53;;;;;;;;;;;;;;;;;;6230782;22;20391;-88
2022/11/21 00:26:22;;;;;;;;;;;;;;;;;;6231803;22;19923;-89
2022/11/21 00:28:48;;;;;;;;;;;;;;;;;;6230124;22;19916;-89
2022/11/21 00:31:14;;;;;;;;;;;;;;;;;;6230835;22;19925;-89
2022/11/21 00:33:39;;;;;;;;;;;;;;;;;;6228074;22;20243;-90
2022/11/21 00:36:06;;;;;;;;;;;;;;;;;;6231196;22;20332;-89
2022/11/21 00:38:32;;;;;;;;;;;;;;;;;;6228222;22;20487;-90
2022/11/21 00:40:58;;;;;;;;;;;;;;;;;;6228677;22;20311;-89
2022/11/21 00:43:24;;;;;;;;;;;;;;;;;;6228157;22;20248;-89
2022/11/21 00:45:50;;;;;;;;;;;;;;;;;;6231167;22;20523;-89
2022/11/21 00:48:16;;;;;;;;;;;;;;;;;;6231654;22;19919;-89
2022/11/21 00:50:42;;;;;;;;;;;;;;;;;;6222344;22;19926;-90
2022/11/21 00:53:08;;;;;;;;;;;;;;;;;;6228034;22;19926;-90
2022/11/21 00:55:36;;;;;;;;;;;;;;;;;;6227950;22;20240;-90
2022/11/21 00:58:02;;;;;;;;;;;;;;;;;;6234806;22;19974;-89
2022/11/21 01:00:28;;;;;;;;;;;;;;;;;;6228615;22;19927;-90
2022/11/21 01:02:54;;;;;;;;;;;;;;;;;;6228754;22;20751;-90
2022/11/21 01:05:23;;;;;;;;;;;;;;;;;;6230742;22;19919;-90
2022/11/21 01:07:49;;;;;;;;;;;;;;;;;;6232090;22;19928;-90
2022/11/21 01:10:14;;;;;;;;;;;;;;;;;;6230180;22;19928;-90
2022/11/21 01:12:40;;;;;;;;;;;;;;;;;;6229085;22;20788;-90
2022/11/21 01:15:06;;;;;;;;;;;;;;;;;;6231579;22;19919;-90
2022/11/21 01:17:32;;;;;;;;;;;;;;;;;;6228426;22;19982;-91
2022/11/21 01:19:58;;;;;;;;;;;;;;;;;;6231455;22;19922;-90
2022/11/21 01:22:24;;;;;;;;;;;;;;;;;;6229144;22;20403;-90
2022/11/21 01:24:50;;;;;;;;;;;;;;;;;;6229606;22;20314;-90
2022/11/21 01:27:16;;;;;;;;;;;;;;;;;;6231867;22;19919;-90
2022/11/21 01:29:42;;;;;;;;;;;;;;;;;;6226751;22;19947;-89
2022/11/21 01:32:08;;;;;;;;;;;;;;;;;;6230037;22;20650;-90
2022/11/21 01:34:34;;;;;;;;;;;;;;;;;;6227495;22;20185;-90
2022/11/21 01:37:01;;;;;;;;;;;;;;;;;;6229784;22;20054;-90
2022/11/21 01:39:27;;;;;;;;;;;;;;;;;;6229117;22;19923;-90
2022/11/21 01:41:53;;;;;;;;;;;;;;;;;;6231402;22;19919;-90
2022/11/21 01:44:19;;;;;;;;;;;;;;;;;;6228489;22;20021;-90
2022/11/21 01:46:48;;;;;;;;;;;;;;;;;;6230408;22;19955;-90
2022/11/21 01:49:14;;;;;;;;;;;;;;;;;;6229847;22;19946;-90
2022/11/21 01:51:40;;;;;;;;;;;;;;;;;;6226799;22;20432;-90
2022/11/21 01:54:06;;;;;;;;;;;;;;;;;;6229602;22;19919;-89
2022/11/21 01:56:32;;;;;;;;;;;;;;;;;;6227425;22;20446;-89
2022/11/21 01:58:57;;;;;;;;;;;;;;;;;;6230606;22;19919;-89
2022/11/21 02:01:23;;;;;;;;;;;;;;;;;;6226646;22;19952;-89
2022/11/21 02:03:49;;;;;;;;;;;;;;;;;;6229860;22;19951;-90
2022/11/21 02:06:15;;;;;;;;;;;;;;;;;;6227267;22;20189;-89
2022/11/21 02:08:41;;;;;;;;;;;;;;;;;;6224966;22;19976;-90
2022/11/21 02:11:07;;;;;;;;;;;;;;;;;;6231999;22;19919;-89
2022/11/21 02:13:33;;;;;;;;;;;;;;;;;;6228794;22;20248;-89
2022/11/21 02:15:59;;;;;;;;;;;;;;;;;;6232676;22;20279;-89
2022/11/21 02:18:25;;;;;;;;;;;;;;;;;;6230855;22;19919;-89
2022/11/21 02:20:51;;;;;;;;;;;;;;;;;;6233858;22;19919;-90
2022/11/21 02:23:17;;;;;;;;;;;;;;;;;;6233605;22;19919;-89
2022/11/21 02:25:43;;;;;;;;;;;;;;;;;;6227981;22;20221;-90
2022/11/21 02:28:09;;;;;;;;;;;;;;;;;;6231622;22;19994;-90
2022/11/21 02:30:35;;;;;;;;;;;;;;;;;;6230443;22;19919;-91
2022/11/21 02:33:01;;;;;;;;;;;;;;;;;;6231205;22;19973;-90
2022/11/21 02:35:27;;;;;;;;;;;;;;;;;;6225960;22;19923;-90
2022/11/21 02:37:53;;;;;;;;;;;;;;;;;;6230244;22;20599;-90
2022/11/21 02:40:28;;;;;;;;;;;;;;;;;;6229581;22;19926;-90
2022/11/21 02:42:54;;;;;;;;;;;;;;;;;;6235196;22;19954;-89
2022/11/21 02:45:23;;;;;;;;;;;;;;;;;;6231246;22;19954;-90
2022/11/21 02:47:49;;;;;;;;;;;;;;;;;;6229493;22;19994;-90
2022/11/21 02:50:15;;;;;;;;;;;;;;;;;;6231493;22;19919;-90
2022/11/21 02:52:41;;;;;;;;;;;;;;;;;;6227312;22;20335;-90
2022/11/21 02:55:07;;;;;;;;;;;;;;;;;;6233225;22;19923;-91
2022/11/21 02:57:33;;;;;;;;;;;;;;;;;;6230424;22;19926;-90
2022/11/21 02:59:59;;;;;;;;;;;;;;;;;;6233776;22;20075;-91
2022/11/21 03:02:25;;;;;;;;;;;;;;;;;;6228299;22;19923;-90
2022/11/21 03:04:51;;;;;;;;;;;;;;;;;;6232877;22;20334;-90
2022/11/21 03:07:17;;;;;;;;;;;;;;;;;;6233531;22;19915;-91
2022/11/21 03:09:43;;;;;;;;;;;;;;;;;;6229527;22;19986;-91
2022/11/21 03:12:09;;;;;;;;;;;;;;;;;;6237538;22;20251;-91
2022/11/21 03:14:35;;;;;;;;;;;;;;;;;;6230829;22;20391;-90
2022/11/21 03:17:01;;;;;;;;;;;;;;;;;;6231803;22;19926;-91
2022/11/21 03:19:27;;;;;;;;;;;;;;;;;;6231242;22;19961;-90
2022/11/21 03:21:53;;;;;;;;;;;;;;;;;;6233217;22;19926;-91
2022/11/21 03:24:19;;;;;;;;;;;;;;;;;;6232720;22;19969;-90
2022/11/21 03:26:44;;;;;;;;;;;;;;;;;;6229900;22;20587;-91
2022/11/21 03:29:10;;;;;;;;;;;;;;;;;;6232233;22;19957;-91
2022/11/21 03:31:36;;;;;;;;;;;;;;;;;;6229051;22;19945;-90
2022/11/21 03:34:02;;;;;;;;;;;;;;;;;;6232636;22;19946;-90
2022/11/21 03:36:28;;;;;;;;;;;;;;;;;;6228408;22;20343;-90
2022/11/21 03:38:55;;;;;;;;;;;;;;;;;;6231932;22;19986;-90
2022/11/21 03:41:31;;;;;;;;;;;;;;;;;;6230678;22;19919;-90
2022/11/21 03:43:57;;;;;;;;;;;;;;;;;;6239096;22;19941;-90
2022/11/21 03:46:23;;;;;;;;;;;;;;;;;;6232531;22;19925;-89
2022/11/21 03:48:49;;;;;;;;;;;;;;;;;;6234392;22;20320;-90
2022/11/21 03:51:15;;;;;;;;;;;;;;;;;;6233991;22;19927;-90
2022/11/21 03:53:41;;;;;;;;;;;;;;;;;;6230758;22;20315;-90
2022/11/21 03:56:06;;;;;;;;;;;;;;;;;;6234805;22;19942;-90
2022/11/21 03:58:32;;;;;;;;;;;;;;;;;;6231403;22;19923;-90
2022/11/21 04:00:58;;;;;;;;;;;;;;;;;;6230253;22;19923;-90
2022/11/21 04:03:24;;;;;;;;;;;;;;;;;;6229004;22;19930;-89
2022/11/21 04:05:50;;;;;;;;;;;;;;;;;;6233400;22;19922;-90
2022/11/21 04:08:16;;;;;;;;;;;;;;;;;;6232474;22;19973;-90
2022/11/21 04:10:42;;;;;;;;;;;;;;;;;;6227842;22;19925;-90
2022/11/21 04:13:08;;;;;;;;;;;;;;;;;;6232984;22;19923;-89
2022/11/21 04:15:34;;;;;;;;;;;;;;;;;;6234088;22;20396;-90
2022/11/21 04:18:00;;;;;;;;;;;;;;;;;;6237424;22;20229;-90
2022/11/21 04:20:26;;;;;;;;;;;;;;;;;;6232732;22;19950;-90
2022/11/21 04:22:52;;;;;;;;;;;;;;;;;;6234694;22;19919;-89
2022/11/21 04:25:18;;;;;;;;;;;;;;;;;;6235939;22;20237;-90
2022/11/21 04:27:44;;;;;;;;;;;;;;;;;;6234600;22;19915;-89
2022/11/21 04:30:10;;;;;;;;;;;;;;;;;;6236512;22;19934;-90
2022/11/21 04:32:36;;;;;;;;;;;;;;;;;;6234393;22;20383;-91
2022/11/21 04:35:02;;;;;;;;;;;;;;;;;;6235038;22;19923;-90
2022/11/21 04:37:28;;;;;;;;;;;;;;;;;;6232773;22;19919;-90
2022/11/21 04:39:54;;;;;;;;;;;;;;;;;;6235630;22;19931;-91
2022/11/21 04:42:23;;;;;;;;;;;;;;;;;;6236311;22;19915;-90
2022/11/21 04:44:49;;;;;;;;;;;;;;;;;;6238309;22;20470;-91
2022/11/21 04:47:14;;;;;;;;;;;;;;;;;;6233022;22;19915;-90
2022/11/21 04:49:40;;;;;;;;;;;;;;;;;;6230123;22;20084;-91
2022/11/21 04:52:06;;;;;;;;;;;;;;;;;;6234283;22;19922;-91
2022/11/21 04:54:32;;;;;;;;;;;;;;;;;;6231071;22;19945;-91
2022/11/21 04:56:58;;;;;;;;;;;;;;;;;;6231202;22;20327;-90
2022/11/21 04:59:24;;;;;;;;;;;;;;;;;;6228557;22;20158;-90
2022/11/21 05:01:50;;;;;;;;;;;;;;;;;;6231095;22;19919;-92
2022/11/21 05:04:16;;;;;;;;;;;;;;;;;;6232191;22;20251;-91
2022/11/21 05:06:42;;;;;;;;;;;;;;;;;;6226021;22;19941;-91
2022/11/21 05:09:08;;;;;;;;;;;;;;;;;;6231628;22;19962;-91
2022/11/21 05:14:25;;;;;;;;;;;;;;;;;;6231290;22;20268;-91
2022/11/21 05:16:50;;;;;;;;;;;;;;;;;;6231940;22;19915;-91
2022/11/21 05:19:16;;;;;;;;;;;;;;;;;;6231325;22;20355;-91
2022/11/21 05:21:42;;;;;;;;;;;;;;;;;;6229032;22;20255;-92
2022/11/21 05:24:08;;;;;;;;;;;;;;;;;;6229995;22;19923;-91
2022/11/21 05:26:34;;;;;;;;;;;;;;;;;;6228708;22;19926;-91
2022/11/21 05:29:00;;;;;;;;;;;;;;;;;;6231191;22;20340;-91
2022/11/21 05:31:26;;;;;;;;;;;;;;;;;;6226823;22;19922;-91
2022/11/21 05:33:52;;;;;;;;;;;;;;;;;;6230140;22;19951;-91
2022/11/21 05:36:18;;;;;;;;;;;;;;;;;;6231642;22;19923;-91
2022/11/21 05:38:44;;;;;;;;;;;;;;;;;;6225496;22;20450;-91
2022/11/21 05:41:10;;;;;;;;;;;;;;;;;;6229591;22;19942;-91
2022/11/21 05:43:45;;;;;;;;;;;;;;;;;;6228916;22;19960;-91
2022/11/21 05:46:11;;;;;;;;;;;;;;;;;;6229692;22;19915;-91
2022/11/21 05:48:37;;;;;;;;;;;;;;;;;;6227097;22;19927;-91
2022/11/21 05:51:03;;;;;;;;;;;;;;;;;;6233454;22;19968;-92
2022/11/21 05:53:29;;;;;;;;;;;;;;;;;;6227015;22;20113;-90
2022/11/21 05:55:55;;;;;;;;;;;;;;;;;;6231977;22;19935;-91
2022/11/21 05:58:21;;;;;;;;;;;;;;;;;;6228828;22;19919;-91
2022/11/21 06:00:47;;;;;;;;;;;;;;;;;;6229063;22;19919;-90
2022/11/21 06:03:31;;;;;;;;;;;;;;;;;;6232662;22;20438;-90
2022/11/21 06:05:58;;;;;;;;;;;;;;;;;;6230165;22;20252;-91
2022/11/21 06:08:24;;;;;;;;;;;;;;;;;;6227656;22;20328;-91
2022/11/21 06:10:50;;;;;;;;;;;;;;;;;;6231945;22;19925;-91
2022/11/21 06:13:22;;;;;;;;;;;;;;;;;;6234274;22;19915;-91
2022/11/21 06:15:48;;;;;;;;;;;;;;;;;;6235696;22;19923;-90
2022/11/21 06:18:14;;;;;;;;;;;;;;;;;;6237493;22;20355;-89
2022/11/21 06:20:40;;;;;;;;;;;;;;;;;;6232767;22;20329;-90
2022/11/21 06:23:06;;;;;;;;;;;;;;;;;;6237316;22;19988;-90
2022/11/21 06:25:32;;;;;;;;;;;;;;;;;;6234730;22;19915;-90
2022/11/21 06:27:58;;;;;;;;;;;;;;;;;;6239928;22;20230;-89
2022/11/21 06:30:24;;;;;;;;;;;;;;;;;;6236446;22;19919;-90
2022/11/21 06:32:49;;;;;;;;;;;;;;;;;;6240075;22;19915;-90
2022/11/21 06:35:15;;;;;;;;;;;;;;;;;;6238394;22;19926;-90
2022/11/21 06:37:41;;;;;;;;;;;;;;;;;;6231069;22;20336;-90
2022/11/21 06:40:07;;;;;;;;;;;;;;;;;;6235342;22;20351;-90
2022/11/21 06:42:33;;;;;;;;;;;;;;;;;;6234926;22;19959;-90
2022/11/21 06:44:59;;;;;;;;;;;;;;;;;;6248402;22;19925;-90
2022/11/21 06:47:25;;;;;;;;;;;;;;;;;;6227228;22;19954;-90
2022/11/21 06:49:51;;;;;;;;;;;;;;;;;;6229662;22;20319;-90
2022/11/21 06:52:17;;;;;;;;;;;;;;;;;;6231160;22;19919;-90
2022/11/21 06:54:43;;;;;;;;;;;;;;;;;;6227379;22;19923;-90
2022/11/21 06:57:09;;;;;;;;;;;;;;;;;;6227985;22;20299;-90
2022/11/21 06:59:35;;;;;;;;;;;;;;;;;;6232405;22;19920;-90
2022/11/21 07:02:01;;;;;;;;;;;;;;;;;;6234444;22;20247;-90
2022/11/21 07:04:27;;;;;;;;;;;;;;;;;;6229925;22;20034;-90
2022/11/21 07:06:53;;;;;;;;;;;;;;;;;;6233270;22;19916;-90
2022/11/21 07:09:22;;;;;;;;;;;;;;;;;;6234932;22;20520;-91
2022/11/21 07:11:48;;;;;;;;;;;;;;;;;;6235036;22;19986;-91
2022/11/21 07:14:14;;;;;;;;;;;;;;;;;;6236123;22;19919;-90
2022/11/21 07:16:40;;;;;;;;;;;;;;;;;;6235022;22;20239;-91
2022/11/21 07:19:06;;;;;;;;;;;;;;;;;;6239323;22;19998;-90
2022/11/21 07:21:32;;;;;;;;;;;;;;;;;;6235426;22;19950;-91
2022/11/21 07:23:58;;;;;;;;;;;;;;;;;;6238676;22;20209;-90
2022/11/21 07:26:24;;;;;;;;;;;;;;;;;;6232630;22;19919;-90
2022/11/21 07:28:50;;;;;;;;;;;;;;;;;;6238422;22;19915;-90
2022/11/21 07:31:16;;;;;;;;;;;;;;;;;;6237035;22;19926;-90
2022/11/21 07:33:42;;;;;;;;;;;;;;;;;;6256698;22;20009;-90
2022/11/21 07:36:08;;;;;;;;;;;;;;;;;;6237467;22;20263;-90
2022/11/21 07:38:34;;;;;;;;;;;;;;;;;;6243566;22;19919;-92
2022/11/21 07:41:00;;;;;;;;;;;;;;;;;;6240282;22;19958;-92
2022/11/21 07:43:27;;;;;;;;;;;;;;;;;;6238160;22;19972;-95
2022/11/21 07:45:56;;;;;;;;;;;;;;;;;;6243753;22;19919;-92
2022/11/21 07:48:22;;;;;;;;;;;;;;;;;;6239705;22;19920;-92
2022/11/21 07:50:48;;;;;;;;;;;;;;;;;;6240121;22;19930;-92
2022/11/21 07:53:14;;;;;;;;;;;;;;;;;;6241461;22;19954;-92
2022/11/21 07:55:40;;;;;;;;;;;;;;;;;;6245263;22;20351;-93
2022/11/21 07:58:06;;;;;;;;;;;;;;;;;;6258826;22;20234;-92
2022/11/21 08:00:32;;;;;;;;;;;;;;;;;;6265376;22;19947;-92
2022/11/21 08:02:58;;;;;;;;;;;;;;;;;;6266523;22;19919;-92
2022/11/21 08:05:24;;;;;;;;;;;;;;;;;;6266457;22;19907;-92
2022/11/21 08:07:50;;;;;;;;;;;;;;;;;;6269998;22;19970;-92
2022/11/21 08:10:16;;;;;;;;;;;;;;;;;;6270656;22;19950;-91
2022/11/21 08:12:42;;;;;;;;;;;;;;;;;;6266026;22;19934;-92
2022/11/21 08:15:08;;;;;;;;;;;;;;;;;;6264449;22;19975;-90
2022/11/21 08:17:34;;;;;;;;;;;;;;;;;;6265715;22;19927;-92
2022/11/21 08:20:01;;;;;;;;;;;;;;;;;;6269944;22;19930;-91
2022/11/21 08:22:27;;;;;;;;;;;;;;;;;;6267171;22;19931;-93
2022/11/21 08:24:53;;;;;;;;;;;;;;;;;;6269654;22;19914;-92
2022/11/21 08:27:23;;;;;;;;;;;;;;;;;;6256566;22;19926;-91
2022/11/21 08:29:49;;;;;;;;;;;;;;;;;;6247093;22;19930;-92
2022/11/21 08:32:15;;;;;;;;;;;;;;;;;;6244311;22;19919;-91
2022/11/21 08:34:41;;;;;;;;;;;;;;;;;;6242971;22;20347;-92
2022/11/21 08:37:07;;;;;;;;;;;;;;;;;;6241027;22;20292;-91
2022/11/21 08:39:33;;;;;;;;;;;;;;;;;;6236070;22;19923;-92
2022/11/21 08:42:02;;;;;;;;;;;;;;;;;;6242956;22;19923;-92
2022/11/21 08:44:28;;;;;;;;;;;;;;;;;;6239176;22;19919;-91
2022/11/21 08:46:54;;;;;;;;;;;;;;;;;;6240555;22;19922;-91
2022/11/21 08:49:22;;;;;;;;;;;;;;;;;;6241422;22;20332;-92
2022/11/21 08:51:48;;;;;;;;;;;;;;;;;;6240582;22;19971;-91
2022/11/21 08:54:14;;;;;;;;;;;;;;;;;;6241829;22;19929;-92
2022/11/21 08:56:40;;;;;;;;;;;;;;;;;;6235313;22;20356;-92
2022/11/21 08:59:06;;;;;;;;;;;;;;;;;;6240307;22;19919;-92
2022/11/21 09:01:32;;;;;;;;;;;;;;;;;;6234188;22;19926;-91
2022/11/21 09:03:58;;;;;;;;;;;;;;;;;;6237772;22;19923;-91
2022/11/21 09:06:24;;;;;;;;;;;;;;;;;;6237652;22;19926;-91
2022/11/21 09:08:50;;;;;;;;;;;;;;;;;;6237476;22;19946;-92
2022/11/21 09:11:16;;;;;;;;;;;;;;;;;;6235755;22;20328;-91
2022/11/21 09:13:42;;;;;;;;;;;;;;;;;;6231991;22;19916;-90
2022/11/21 09:18:53;;;;;;;;;;;;;;;;;;6236814;22;20437;-92
2022/11/21 09:21:19;;;;;;;;;;;;;;;;;;6236403;22;19926;-91
2022/11/21 09:23:45;;;;;;;;;;;;;;;;;;6235051;22;19919;-92
2022/11/21 09:26:11;;;;;;;;;;;;;;;;;;6236270;22;19920;-92
2022/11/21 09:28:37;;;;;;;;;;;;;;;;;;6234720;22;19985;-91
2022/11/21 09:31:03;;;;;;;;;;;;;;;;;;6233424;22;19915;-91
2022/11/21 09:33:29;;;;;;;;;;;;;;;;;;6234102;22;19931;-92
2022/11/21 09:35:54;;;;;;;;;;;;;;;;;;6232700;22;20211;-92
2022/11/21 09:38:20;;;;;;;;;;;;;;;;;;6232924;22;19919;-91
2022/11/21 09:40:46;;;;;;;;;;;;;;;;;;6233379;22;19919;-92
2022/11/21 09:43:13;;;;;;;;;;;;;;;;;;6236585;22;19926;-92
2022/11/21 09:45:39;;;;;;;;;;;;;;;;;;6232690;22;20018;-91
2022/11/21 09:48:05;;;;;;;;;;;;;;;;;;6235882;22;20343;-91
2022/11/21 09:50:31;;;;;;;;;;;;;;;;;;6231578;22;19920;-91
2022/11/21 09:52:57;;;;;;;;;;;;;;;;;;6234189;22;19922;-91
2022/11/21 09:55:23;;;;;;;;;;;;;;;;;;6233911;22;20377;-92
2022/11/21 09:57:50;;;;;;;;;;;;;;;;;;6234710;22;20001;-92
2022/11/21 10:00:16;;;;;;;;;;;;;;;;;;6236537;22;19926;-91
2022/11/21 10:02:42;;;;;;;;;;;;;;;;;;6232888;22;19926;-92
2022/11/21 10:05:08;;;;;;;;;;;;;;;;;;6231154;22;19919;-92
2022/11/21 10:07:34;;;;;;;;;;;;;;;;;;6233376;22;20343;-92
2022/11/21 10:10:00;;;;;;;;;;;;;;;;;;6238227;22;19926;-91
2022/11/21 10:12:38;;;;;;;;;;;;;;;;;;6232494;22;19969;-90
2022/11/21 10:15:05;;;;;;;;;;;;;;;;;;6235455;22;20317;-91
2022/11/21 10:17:31;;;;;;;;;;;;;;;;;;6233854;22;20363;-91
2022/11/21 10:19:57;;;;;;;;;;;;;;;;;;6235648;22;19923;-91
2022/11/21 10:22:23;;;;;;;;;;;;;;;;;;6231696;22;20339;-91
2022/11/21 10:24:49;;;;;;;;;;;;;;;;;;6236187;22;19965;-91
2022/11/21 10:27:15;;;;;;;;;;;;;;;;;;6235871;22;19926;-91
2022/11/21 10:29:41;;;;;;;;;;;;;;;;;;6229756;22;20361;-91
2022/11/21 10:32:07;;;;;;;;;;;;;;;;;;6233757;22;19954;-91
2022/11/21 10:34:33;;;;;;;;;;;;;;;;;;6229068;22;20251;-90
2022/11/21 10:36:59;;;;;;;;;;;;;;;;;;6234157;22;19923;-90
2022/11/21 10:39:25;;;;;;;;;;;;;;;;;;6233410;22;20354;-90
2022/11/21 10:41:51;;;;;;;;;;;;;;;;;;6260466;22;19998;-90
2022/11/21 10:47:02;;;;;;;;;;;;;;;;;;6230235;22;19916;-91
2022/11/21 10:49:28;;;;;;;;;;;;;;;;;;6233179;22;19961;-90
2022/11/21 10:51:54;;;;;;;;;;;;;;;;;;6238434;22;20268;-91
2022/11/21 10:54:32;;;;;;;;;;;;;;;;;;6234106;22;20340;-90
2022/11/21 10:56:58;;;;;;;;;;;;;;;;;;6236484;22;19965;-92
2022/11/21 10:59:24;;;;;;;;;;;;;;;;;;6235069;22;19923;-91
2022/11/21 11:01:50;;;;;;;;;;;;;;;;;;6237087;22;19965;-90
2022/11/21 11:04:16;;;;;;;;;;;;;;;;;;6232598;22;19919;-91
2022/11/21 11:06:42;;;;;;;;;;;;;;;;;;6230609;22;19919;-91
2022/11/21 11:09:08;;;;;;;;;;;;;;;;;;6236029;22;19919;-90
2022/11/21 11:11:34;;;;;;;;;;;;;;;;;;6236621;22;20317;-90
2022/11/21 11:14:00;;;;;;;;;;;;;;;;;;6238743;22;20263;-90
2022/11/21 11:16:26;;;;;;;;;;;;;;;;;;6240528;22;19930;-90
2022/11/21 11:18:52;;;;;;;;;;;;;;;;;;6242309;22;20359;-90
2022/11/21 11:21:18;;;;;;;;;;;;;;;;;;6238995;22;19919;-90
2022/11/21 11:23:44;;;;;;;;;;;;;;;;;;6236140;22;19923;-93
2022/11/21 11:26:10;;;;;;;;;;;;;;;;;;6236440;22;19931;-89
2022/11/21 11:28:36;;;;;;;;;;;;;;;;;;6237752;22;19919;-90
2022/11/21 11:31:02;;;;;;;;;;;;;;;;;;6238605;22;19919;-89
2022/11/21 11:33:28;;;;;;;;;;;;;;;;;;6236124;22;20374;-90
2022/11/21 11:35:54;;;;;;;;;;;;;;;;;;6240516;22;19926;-90
2022/11/21 11:38:20;;;;;;;;;;;;;;;;;;6237454;22;19919;-90
2022/11/21 11:40:46;;;;;;;;;;;;;;;;;;6237234;22;20289;-90
2022/11/21 11:48:41;;;;;;;;;;;;;;;;;;6233194;22;19920;-90
2022/11/21 11:51:07;;;;;;;;;;;;;;;;;;6238728;22;20325;-90
2022/11/21 11:53:33;;;;;;;;;;;;;;;;;;6233195;22;20042;-90
2022/11/21 11:55:59;;;;;;;;;;;;;;;;;;6235146;22;20312;-89
2022/11/21 11:58:25;;;;;;;;;;;;;;;;;;6233346;22;20333;-90
2022/11/21 12:00:51;;;;;;;;;;;;;;;;;;6238678;22;19922;-90
2022/11/21 12:03:17;;;;;;;;;;;;;;;;;;6239995;22;19990;-90
2022/11/21 12:05:43;;;;;;;;;;;;;;;;;;6238167;22;20290;-91
2022/11/21 12:08:09;;;;;;;;;;;;;;;;;;6241343;22;19919;-91
2022/11/21 12:10:35;;;;;;;;;;;;;;;;;;6232396;22;20002;-90
2022/11/21 12:13:02;;;;;;;;;;;;;;;;;;6237147;22;19923;-90
2022/11/21 12:18:13;;;;;;;;;;;;;;;;;;6237515;22;19923;-91
2022/11/21 12:20:38;;;;;;;;;;;;;;;;;;6233365;22;19923;-91
2022/11/21 12:23:04;;;;;;;;;;;;;;;;;;6237704;22;19977;-91
2022/11/21 12:25:30;;;;;;;;;;;;;;;;;;6232610;22;19915;-91
2022/11/21 12:27:56;;;;;;;;;;;;;;;;;;6238123;22;19915;-91
2022/11/21 12:30:22;;;;;;;;;;;;;;;;;;6233162;22;19991;-91
2022/11/21 12:32:48;;;;;;;;;;;;;;;;;;6239435;22;19923;-91
2022/11/21 12:35:14;;;;;;;;;;;;;;;;;;6240578;22;20237;-91
2022/11/21 12:37:40;;;;;;;;;;;;;;;;;;6234878;22;20255;-91
2022/11/21 12:40:06;;;;;;;;;;;;;;;;;;6238098;22;19930;-91
2022/11/21 12:42:48;;;;;;;;;;;;;;;;;;6237570;22;20021;-91
2022/11/21 12:45:14;;;;;;;;;;;;;;;;;;6240276;22;20411;-91
2022/11/21 12:54:29;;;;;;;;;;;;;;;;;;6238752;22;20246;-91
2022/11/21 12:55:55;;;;;;;;;;;;;;;;;;6235395;22;20002;-91
2022/11/21 12:58:21;;;;;;;;;;;;;;;;;;6235067;22;19942;-91
2022/11/21 13:00:47;;;;;;;;;;;;;;;;;;6233749;22;19926;-90
2022/11/21 13:03:13;;;;;;;;;;;;;;;;;;6235032;22;20332;-90
2022/11/21 13:05:39;;;;;;;;;;;;;;;;;;6231370;22;19919;-89
2022/11/21 13:08:05;;;;;;;;;;;;;;;;;;6234651;22;19995;-90
2022/11/21 13:10:31;;;;;;;;;;;;;;;;;;6235124;22;19919;-90
2022/11/21 13:12:57;;;;;;;;;;;;;;;;;;6235599;22;19961;-89
2022/11/21 13:15:23;;;;;;;;;;;;;;;;;;6235297;22;19928;-90
2022/11/21 13:17:49;;;;;;;;;;;;;;;;;;6239510;22;19927;-91
2022/11/21 13:20:15;;;;;;;;;;;;;;;;;;6234474;22;19946;-90
2022/11/21 13:22:41;;;;;;;;;;;;;;;;;;6236200;22;19923;-90
2022/11/21 13:25:07;;;;;;;;;;;;;;;;;;6236256;22;20341;-91
2022/11/21 13:27:33;;;;;;;;;;;;;;;;;;6234359;22;19920;-91
2022/11/21 13:29:59;;;;;;;;;;;;;;;;;;6235169;22;19954;-90
2022/11/21 13:32:30;;;;;;;;;;;;;;;;;;6221689;22;20284;-91
2022/11/21 13:35:02;;;;;;;;;;;;;;;;;;6229453;22;20342;-91
2022/11/21 13:37:30;;;;;;;;;;;;;;;;;;6224627;22;19934;-91
2022/11/21 13:39:58;;;;;;;;;;;;;;;;;;6229954;22;20341;-90
2022/11/21 13:45:09;;;;;;;;;;;;;;;;;;6230373;22;20290;-90
2022/11/21 13:47:36;;;;;;;;;;;;;;;;;;6229582;22;20329;-90
2022/11/21 13:50:02;;;;;;;;;;;;;;;;;;6231127;22;20287;-90
2022/11/21 13:52:28;;;;;;;;;;;;;;;;;;6236447;22;20446;-91
2022/11/21 13:54:54;;;;;;;;;;;;;;;;;;6231886;22;19919;-90
2022/11/21 13:57:20;;;;;;;;;;;;;;;;;;6235072;22;19919;-91
2022/11/21 13:59:47;;;;;;;;;;;;;;;;;;6234750;22;20347;-91
2022/11/21 14:02:13;;;;;;;;;;;;;;;;;;6233577;22;19954;-90
2022/11/21 14:04:39;;;;;;;;;;;;;;;;;;6232259;22;19962;-90
2022/11/21 14:07:05;;;;;;;;;;;;;;;;;;6234099;22;19919;-91
2022/11/21 14:09:31;;;;;;;;;;;;;;;;;;6229373;22;20002;-90
2022/11/21 14:11:57;;;;;;;;;;;;;;;;;;6230951;22;19954;-91
2022/11/21 14:14:23;;;;;;;;;;;;;;;;;;6228700;22;20320;-91
2022/11/21 14:16:49;;;;;;;;;;;;;;;;;;6234204;22;19923;-91
2022/11/21 14:19:15;;;;;;;;;;;;;;;;;;6230561;22;19919;-92
2022/11/21 14:21:41;;;;;;;;;;;;;;;;;;6230227;22;19919;-91
2022/11/21 14:24:07;;;;;;;;;;;;;;;;;;6234181;22;19923;-91
2022/11/21 14:26:33;;;;;;;;;;;;;;;;;;6230978;22;19927;-91
2022/11/21 14:28:59;;;;;;;;;;;;;;;;;;6232955;22;19920;-90
2022/11/21 14:31:25;;;;;;;;;;;;;;;;;;6230197;22;20283;-91
2022/11/21 14:33:51;;;;;;;;;;;;;;;;;;6233776;22;19919;-90
2022/11/21 14:36:17;;;;;;;;;;;;;;;;;;6234944;22;19946;-91
2022/11/21 14:38:43;;;;;;;;;;;;;;;;;;6232130;22;19925;-90
2022/11/21 14:41:09;;;;;;;;;;;;;;;;;;6230127;22;19934;-90
2022/11/21 14:43:35;;;;;;;;;;;;;;;;;;6231105;22;20391;-90
2022/11/21 14:46:01;;;;;;;;;;;;;;;;;;6231177;22;20296;-90
2022/11/21 14:48:27;;;;;;;;;;;;;;;;;;6230877;22;19951;-91
2022/11/21 14:50:53;;;;;;;;;;;;;;;;;;6232706;22;19981;-90
2022/11/21 14:53:25;;;;;;;;;;;;;;;;;;6234731;22;19926;-91
2022/11/21 14:55:54;;;;;;;;;;;;;;;;;;6235462;22;19930;-92
2022/11/21 14:58:26;;;;;;;;;;;;;;;;;;6229367;22;19967;-90
2022/11/21 15:01:00;;;;;;;;;;;;;;;;;;6235787;22;20343;-89
2022/11/21 15:03:29;;;;;;;;;;;;;;;;;;6238235;22;20325;-89
2022/11/21 15:06:01;;;;;;;;;;;;;;;;;;6232951;22;20378;-90
2022/11/21 15:08:27;;;;;;;;;;;;;;;;;;6231924;22;20384;-89
2022/11/21 15:10:56;;;;;;;;;;;;;;;;;;6235517;22;20276;-89
2022/11/21 15:13:26;;;;;;;;;;;;;;;;;;6229017;22;19919;-90
2022/11/21 15:15:56;;;;;;;;;;;;;;;;;;6227873;22;20002;-89
2022/11/21 15:18:25;;;;;;;;;;;;;;;;;;6230343;22;19926;-89
2022/11/21 15:20:51;;;;;;;;;;;;;;;;;;6233515;22;20284;-90
2022/11/21 15:23:17;;;;;;;;;;;;;;;;;;6232417;22;19926;-89
2022/11/21 15:25:43;;;;;;;;;;;;;;;;;;6229877;22;19915;-89
2022/11/21 15:28:10;;;;;;;;;;;;;;;;;;6228910;22;20316;-90
2022/11/21 15:30:44;;;;;;;;;;;;;;;;;;6229733;22;19926;-89
2022/11/21 15:33:15;;;;;;;;;;;;;;;;;;6236809;22;19915;-89
2022/11/21 15:35:41;;;;;;;;;;;;;;;;;;6235612;22;19950;-90
2022/11/21 15:38:07;;;;;;;;;;;;;;;;;;6237564;22;19919;-90
2022/11/21 15:40:33;;;;;;;;;;;;;;;;;;6235094;22;19974;-90
2022/11/21 15:43:00;;;;;;;;;;;;;;;;;;6238661;22;19919;-90
2022/11/21 15:45:32;;;;;;;;;;;;;;;;;;6235536;22;19915;-90
2022/11/21 15:47:58;;;;;;;;;;;;;;;;;;6238679;22;20260;-90
2022/11/21 15:50:33;;;;;;;;;;;;;;;;;;6234467;22;20325;-89
2022/11/21 15:53:02;;;;;;;;;;;;;;;;;;6233535;22;19919;-90
2022/11/21 15:55:34;;;;;;;;;;;;;;;;;;6234419;22;19923;-90
2022/11/21 15:58:03;;;;;;;;;;;;;;;;;;6238539;22;19966;-90
2022/11/21 16:00:29;;;;;;;;;;;;;;;;;;6234259;22;19917;-90
2022/11/21 16:02:55;;;;;;;;;;;;;;;;;;6233730;22;19962;-90
2022/11/21 16:05:24;;;;;;;;;;;;;;;;;;6232110;22;19973;-90
2022/11/21 16:07:53;;;;;;;;;;;;;;;;;;6234682;22;19953;-90
2022/11/21 16:10:22;;;;;;;;;;;;;;;;;;6231180;22;19915;-91
2022/11/21 16:12:51;;;;;;;;;;;;;;;;;;6235085;22;20362;-91
2022/11/21 16:15:23;;;;;;;;;;;;;;;;;;6233944;22;19923;-91
2022/11/21 16:17:49;;;;;;;;;;;;;;;;;;6234631;22;19994;-90
2022/11/21 16:20:18;;;;;;;;;;;;;;;;;;6234877;22;19965;-91
2022/11/21 16:25:50;;;;;;;;;;;;;;;;;;6205880;22;19919;-91
2022/11/21 16:37:52;;;;;;;;;;;;;;;;;;;;;
2022/11/21 16:43:40;;;;;;;;;;;;;;;;;;6199989;23;19998;-91
2022/11/21 16:49:45;;;;;;;;;;;;;;;;;;;;;
2022/11/21 16:55:18;;;;;;;;;;;;;;;;;;6170657;23;19925;-89
2022/11/21 16:57:44;;;;;;;;;;;;;;;;;;6170486;23;20300;-89
2022/11/21 17:00:12;;;;;;;;;;;;;;;;;;6173341;23;19916;-90
2022/11/21 17:02:38;;;;;;;;;;;;;;;;;;6193621;23;19928;-89
2022/11/21 17:05:07;;;;;;;;;;;;;;;;;;6192035;23;20356;-90
2022/11/21 17:07:33;;;;;;;;;;;;;;;;;;6225943;23;20313;-90
2022/11/21 17:09:59;;;;;;;;;;;;;;;;;;6228561;23;19942;-90
2022/11/21 17:12:25;;;;;;;;;;;;;;;;;;6225268;23;20213;-90
2022/11/21 17:14:51;;;;;;;;;;;;;;;;;;6230592;23;20121;-90
2022/11/21 17:17:17;;;;;;;;;;;;;;;;;;6230455;23;20341;-91
2022/11/21 17:19:43;;;;;;;;;;;;;;;;;;6225231;23;19920;-90
2022/11/21 17:22:09;;;;;;;;;;;;;;;;;;6227814;23;20046;-89
2022/11/21 17:24:35;;;;;;;;;;;;;;;;;;6226224;23;20353;-90
2022/11/21 17:27:01;;;;;;;;;;;;;;;;;;6227618;23;19934;-89
2022/11/21 17:29:27;;;;;;;;;;;;;;;;;;6225017;23;19926;-90